Etusivu
METAR-TAF:

METAR-TAF

Lentoasemat :

Panama Pacifico, Panama

Leveyspiiri: 08-55N, Pituuspiiri: 079-36W, korkeus merenpinnasta: 16 m

Tämänhetkinen sää

Tämä raportti tehtiin 15 minuuttia sitten, kello 14.00 UTC
Tuuli 14 kn pohjoisesta
Lämpötila 29°C
Kosteus 70%
Ilmanpaine 1008 hPa
Näkyvyys 10 km tai enemmän
Muutamia pilviä 2000 ft:n korkeudessa

METAR: MPPA 171400Z 01014KT 9999 FEW020 29/23 Q1008

Aika: 09:15 (14:15 UTC)

Sääennuste

Tämä raportti tehtiin 3 tuntia ja 15 minuuttia sitten, kello 11.00 UTC
Ennuste voimassa 17. päivästä klo 12 UTC - 18. päivään klo 18 UTC
Tuuli 8 kn pohjoisen/luoteesta
Näkyvyys 10 km tai enemmän
Muutamia pilviä 1700 ft:n korkeudessa
Tulossa
17. päivästä klo 17 UTC - 17. päivään klo 21 UTC
Tuuli 18 kn pohjoisesta/koillisesta
Hajanaisia pilviä 2000 ft:n korkeudessa

TAF: MPPA 171100Z 1712/1818 33008KT 9999 FEW017 BECMG 1717/1721 02018KT SCT020

Säähavainnot ja -ennusteet yli 4000 lentoasemalta (METAR- ja TAF-raportit).

Käytössä olevat sääasemat on merkitty karttaan keltaisilla ja punaisilla pisteillä.

Aseta hiiri pisteen päälle nähdäksesi sääaseman nimen.

Klikkaa sitten nähdäksesi säähavainnot ja -ennusteet.

Kartan vaihtaminen: klikkaa mustalla rastilla varustettuja vihreitä pisteitä, niin voit zoomata sisään; viivalla varustettua vihreää pistettä, niin voit zoomata ulos tai vihreitä nuolia, niin pääset viereisille kartoille.


METAR-TAF: